Time;durP1;ratioP1;P1;durP2;ratioP2;P2;SDS_P1;SDS_P2;PMS_P1;PMS_P2;Temp;Humidity;BMP_temperature;BMP_pressure;BME280_temperature;BME280_humidity;BME280_pressure;Samples;Min_cycle;Max_cycle;Signal;HPM_P1;HPM_P2
2022/10/10 00:02:14;;;;;;;12.75;7.20;;;11.10;23.10;;;;;;7374253;19;19999;-67
2022/10/10 00:04:43;;;;;;;12.32;6.90;;;11.10;23.50;;;;;;7374093;19;20023;-67
2022/10/10 00:07:13;;;;;;;9.82;7.38;;;11.10;23.70;;;;;;7393393;19;20010;-67
2022/10/10 00:09:43;;;;;;;17.75;7.50;;;11.10;24.10;;;;;;7372056;19;20050;-67
2022/10/10 00:12:13;;;;;;;14.45;7.75;;;11.10;24.20;;;;;;7373365;19;20006;-67
2022/10/10 00:14:42;;;;;;;10.68;7.22;;;11.20;24.20;;;;;;7373388;19;20037;-67
2022/10/10 00:17:15;;;;;;;9.90;7.25;;;11.10;24.70;;;;;;7371736;19;20010;-67
2022/10/10 00:19:45;;;;;;;11.25;7.38;;;11.20;24.60;;;;;;7372249;19;20490;-67
2022/10/10 00:22:14;;;;;;;13.50;7.68;;;11.20;24.50;;;;;;7395222;19;20010;-67
2022/10/10 00:24:44;;;;;;;13.52;7.78;;;11.30;24.50;;;;;;7373123;19;20292;-67
2022/10/10 00:27:14;;;;;;;10.77;7.63;;;11.30;24.40;;;;;;7369238;19;20014;-67
2022/10/10 00:29:44;;;;;;;14.77;8.25;;;11.30;24.90;;;;;;7370298;19;20014;-67
2022/10/10 00:32:16;;;;;;;19.00;8.60;;;11.40;24.90;;;;;;7370867;19;20007;-67
2022/10/10 00:34:46;;;;;;;11.40;8.18;;;11.40;24.30;;;;;;7372670;19;20022;-68
2022/10/10 00:37:15;;;;;;;10.13;8.00;;;11.50;24.20;;;;;;7392035;19;20462;-66
2022/10/10 00:39:45;;;;;;;12.02;8.15;;;11.50;23.20;;;;;;7371326;19;20463;-68
2022/10/10 00:42:16;;;;;;;14.32;8.57;;;11.50;23.30;;;;;;7372594;19;20006;-68
2022/10/10 00:44:48;;;;;;;17.52;9.38;;;11.60;23.40;;;;;;7372086;19;20400;-66
2022/10/10 00:47:20;;;;;;;11.38;8.07;;;11.60;23.20;;;;;;7370392;19;20037;-66
2022/10/10 00:49:50;;;;;;;12.38;8.57;;;11.60;23.90;;;;;;7369552;19;20344;-66
2022/10/10 00:52:20;;;;;;;12.80;8.18;;;11.60;24.10;;;;;;7394894;19;20039;-66
2022/10/10 00:54:50;;;;;;;14.85;8.40;;;11.60;24.10;;;;;;7372157;19;20014;-67
2022/10/10 00:57:19;;;;;;;19.48;8.82;;;11.60;24.20;;;;;;7368115;19;20010;-67
2022/10/10 00:59:49;;;;;;;13.60;8.82;;;11.70;24.20;;;;;;7370845;19;20007;-67
2022/10/10 01:02:22;;;;;;;13.60;9.48;;;11.70;24.40;;;;;;7395822;19;20017;-66
2022/10/10 01:04:51;;;;;;;11.07;7.38;;;11.70;24.50;;;;;;7395633;19;20011;-67
2022/10/10 01:07:25;;;;;;;14.88;8.70;;;11.70;24.20;;;;;;7392342;19;20010;-67
2022/10/10 01:09:57;;;;;;;12.23;9.43;;;11.80;23.90;;;;;;7393749;19;20026;-67
2022/10/10 01:12:34;;;;;;;15.43;9.40;;;11.80;23.40;;;;;;7394858;19;20018;-67
2022/10/10 01:15:14;;;;;;;12.60;8.45;;;11.80;23.30;;;;;;7395255;19;20010;-67
2022/10/10 01:17:53;;;;;;;16.48;9.88;;;11.80;23.30;;;;;;7390945;19;20014;-67
2022/10/10 01:20:39;;;;;;;10.60;8.32;;;11.80;23.30;;;;;;7394622;19;20007;-67
2022/10/10 01:23:38;;;;;;;12.20;8.65;;;11.80;23.30;;;;;;7395570;19;20018;-67
2022/10/10 01:26:36;;;;;;;17.05;10.25;;;11.70;23.70;;;;;;7394254;19;20042;-67
2022/10/10 01:29:15;;;;;;;14.98;8.57;;;11.70;24.10;;;;;;7392242;19;20035;-67
2022/10/10 01:31:48;;;;;;;11.52;9.00;;;11.70;24.20;;;;;;7394704;19;20037;-67
2022/10/10 01:34:26;;;;;;;13.50;8.88;;;11.70;24.20;;;;;;7394997;19;20030;-66
2022/10/10 01:37:03;;;;;;;12.30;8.25;;;11.70;23.60;;;;;;7392602;19;20040;-67
2022/10/10 01:39:41;;;;;;;13.43;9.35;;;11.70;23.50;;;;;;7392026;19;20510;-67
2022/10/10 01:42:15;;;;;;;12.60;8.32;;;11.60;24.10;;;;;;7394552;19;20011;-67
2022/10/10 01:44:52;;;;;;;11.73;8.18;;;11.60;24.00;;;;;;7393848;19;20486;-67
2022/10/10 01:47:23;;;;;;;15.00;8.80;;;11.60;24.20;;;;;;7391154;19;20010;-67
2022/10/10 01:49:59;;;;;;;11.15;8.77;;;11.60;24.70;;;;;;7391507;19;20052;-67
2022/10/10 01:52:38;;;;;;;15.05;8.07;;;11.60;24.50;;;;;;7393556;19;20088;-67
2022/10/10 01:55:26;;;;;;;16.92;8.30;;;11.60;24.80;;;;;;7393965;19;20014;-67
2022/10/10 01:58:07;;;;;;;15.65;8.88;;;11.60;25.20;;;;;;7390390;19;20431;-67
2022/10/10 02:00:48;;;;;;;16.63;8.60;;;11.60;25.40;;;;;;7393307;19;20485;-67
2022/10/10 02:03:22;;;;;;;11.68;8.15;;;11.50;25.20;;;;;;7393929;19;20016;-67
2022/10/10 02:05:58;;;;;;;12.00;8.23;;;11.60;25.40;;;;;;7393351;19;20042;-67
2022/10/10 02:08:35;;;;;;;12.50;9.27;;;11.60;25.20;;;;;;7389578;19;20122;-66
2022/10/10 02:11:07;;;;;;;11.65;9.15;;;11.50;25.50;;;;;;7392701;19;20010;-67
2022/10/10 02:13:41;;;;;;;15.90;8.88;;;11.50;26.00;;;;;;7393007;19;20007;-67
2022/10/10 02:16:17;;;;;;;14.45;8.65;;;11.50;26.00;;;;;;7392431;19;20474;-67
2022/10/10 02:18:48;;;;;;;13.10;8.43;;;11.40;26.80;;;;;;7390802;19;20051;-66
2022/10/10 02:21:19;;;;;;;14.73;8.30;;;11.50;26.50;;;;;;7392830;19;20287;-67
2022/10/10 02:23:51;;;;;;;12.52;8.50;;;11.50;26.50;;;;;;7393399;19;20038;-66
2022/10/10 02:26:25;;;;;;;11.10;8.77;;;11.40;26.60;;;;;;7392142;19;20479;-66
2022/10/10 02:28:58;;;;;;;13.68;9.35;;;11.50;26.50;;;;;;7390639;19;20010;-67
2022/10/10 02:31:38;;;;;;;12.80;8.90;;;11.40;26.40;;;;;;7389652;19;20024;-67
2022/10/10 02:34:13;;;;;;;14.48;8.98;;;11.40;26.30;;;;;;7393228;19;20015;-67
2022/10/10 02:36:46;;;;;;;12.43;8.85;;;11.40;26.30;;;;;;7390637;19;20015;-67
2022/10/10 02:39:19;;;;;;;16.05;9.35;;;11.50;26.30;;;;;;7391160;19;20014;-67
2022/10/10 02:41:50;;;;;;;11.68;8.95;;;11.50;26.10;;;;;;7392183;19;20038;-66
2022/10/10 02:44:21;;;;;;;14.32;8.50;;;11.40;25.90;;;;;;7393177;19;20006;-67
2022/10/10 02:46:53;;;;;;;11.88;8.30;;;11.40;26.00;;;;;;7389845;19;20015;-67
2022/10/10 02:49:28;;;;;;;10.90;8.32;;;11.40;26.20;;;;;;7391530;19;20010;-67
2022/10/10 02:51:58;;;;;;;11.82;8.63;;;11.40;26.40;;;;;;7392228;19;20728;-67
2022/10/10 02:54:29;;;;;;;11.50;8.27;;;11.30;27.10;;;;;;7395250;19;20025;-67
2022/10/10 02:56:58;;;;;;;11.43;8.48;;;11.30;27.70;;;;;;7396729;19;20733;-67
2022/10/10 02:59:28;;;;;;;12.32;9.02;;;11.20;27.80;;;;;;7397739;19;20034;-67
2022/10/10 03:02:01;;;;;;;16.05;9.70;;;11.20;28.30;;;;;;7399292;19;20488;-67
2022/10/10 03:04:30;;;;;;;14.07;9.43;;;11.20;28.50;;;;;;7398787;19;20010;-67
2022/10/10 03:07:00;;;;;;;19.42;8.93;;;11.20;28.30;;;;;;7396054;19;20014;-67
2022/10/10 03:09:30;;;;;;;13.60;8.68;;;11.10;28.60;;;;;;7396428;19;20042;-67
2022/10/10 03:12:00;;;;;;;13.85;9.07;;;11.10;28.70;;;;;;7399079;19;20481;-67
2022/10/10 03:14:30;;;;;;;11.68;8.75;;;11.10;28.60;;;;;;7398898;19;20395;-67
2022/10/10 03:17:02;;;;;;;10.25;7.97;;;11.10;28.80;;;;;;7395012;19;20043;-67
2022/10/10 03:19:32;;;;;;;15.55;8.98;;;11.10;29.10;;;;;;7397454;19;20573;-67
2022/10/10 03:22:02;;;;;;;15.25;9.07;;;11.10;29.40;;;;;;7398429;19;20019;-67
2022/10/10 03:24:31;;;;;;;12.32;8.52;;;11.00;29.50;;;;;;7398274;19;20014;-67
2022/10/10 03:27:01;;;;;;;15.15;9.20;;;11.00;29.60;;;;;;7395076;19;20474;-67
2022/10/10 03:29:31;;;;;;;13.55;9.52;;;11.00;29.70;;;;;;7396356;19;20019;-67
2022/10/10 03:32:03;;;;;;;17.25;9.30;;;10.90;30.30;;;;;;7398012;19;20038;-67
2022/10/10 03:34:39;;;;;;;12.70;8.95;;;10.90;31.20;;;;;;7397821;19;20007;-67
2022/10/10 03:37:09;;;;;;;13.38;9.13;;;10.90;31.20;;;;;;7394496;19;20018;-67
2022/10/10 03:39:38;;;;;;;12.60;9.23;;;10.90;31.30;;;;;;7396967;19;20015;-66
2022/10/10 03:42:08;;;;;;;12.88;9.05;;;10.90;31.30;;;;;;7398211;19;20010;-66
2022/10/10 03:44:38;;;;;;;13.38;8.63;;;10.90;32.00;;;;;;7397816;19;20042;-67
2022/10/10 03:47:10;;;;;;;13.98;9.02;;;10.90;32.20;;;;;;7394541;19;20010;-67
2022/10/10 03:49:40;;;;;;;14.73;9.93;;;10.80;32.30;;;;;;7394974;19;20053;-67
2022/10/10 03:52:10;;;;;;;13.40;9.80;;;10.80;32.90;;;;;;7397913;19;20033;-67
2022/10/10 03:54:40;;;;;;;15.38;10.00;;;10.80;33.30;;;;;;7397150;19;20026;-67
2022/10/10 03:57:09;;;;;;;11.80;9.20;;;10.80;33.20;;;;;;7394378;19;20011;-67
2022/10/10 03:59:39;;;;;;;13.85;9.02;;;10.80;32.70;;;;;;7396760;19;20018;-67
2022/10/10 04:02:11;;;;;;;14.38;9.43;;;10.80;33.20;;;;;;7397683;19;20019;-67
2022/10/10 04:04:41;;;;;;;12.25;9.07;;;10.80;33.40;;;;;;7395881;19;20394;-67
2022/10/10 04:07:11;;;;;;;13.23;9.20;;;10.80;33.40;;;;;;7391823;19;20549;-66
2022/10/10 04:09:41;;;;;;;15.25;8.80;;;10.80;33.40;;;;;;7395334;19;20478;-66
2022/10/10 04:12:11;;;;;;;14.77;9.50;;;10.70;33.40;;;;;;7397874;19;20015;-67
2022/10/10 04:14:41;;;;;;;12.55;9.45;;;10.70;34.30;;;;;;7397522;19;20455;-67
2022/10/10 04:17:13;;;;;;;15.25;9.68;;;10.70;34.70;;;;;;7391633;19;20622;-67
2022/10/10 04:19:43;;;;;;;15.15;8.75;;;10.70;34.70;;;;;;7395695;19;20018;-67
2022/10/10 04:22:13;;;;;;;11.45;8.60;;;10.70;34.90;;;;;;7397201;19;19999;-67
2022/10/10 04:24:43;;;;;;;11.45;9.00;;;10.70;34.50;;;;;;7396758;19;20692;-66
2022/10/10 04:27:13;;;;;;;10.70;8.63;;;10.70;34.30;;;;;;7392846;19;20450;-66
2022/10/10 04:29:43;;;;;;;15.75;9.02;;;10.70;34.60;;;;;;7394890;19;20014;-67
2022/10/10 04:32:15;;;;;;;14.23;9.75;;;10.70;34.50;;;;;;7396085;19;20467;-67
2022/10/10 04:34:45;;;;;;;16.67;9.45;;;10.70;34.70;;;;;;7396624;19;20007;-67
2022/10/10 04:37:14;;;;;;;14.68;8.90;;;10.60;34.70;;;;;;7392688;19;20021;-67
2022/10/10 04:39:44;;;;;;;15.90;9.07;;;10.70;35.10;;;;;;7394573;19;20510;-67
2022/10/10 04:42:14;;;;;;;14.27;8.75;;;10.60;34.90;;;;;;7396384;19;20548;-67
2022/10/10 04:44:44;;;;;;;17.38;10.65;;;10.60;35.00;;;;;;7395581;19;20033;-67
2022/10/10 04:47:16;;;;;;;13.27;9.40;;;10.70;34.90;;;;;;7392608;19;20481;-67
2022/10/10 04:49:46;;;;;;;16.08;9.90;;;10.70;34.60;;;;;;7394235;19;20029;-67
2022/10/10 04:52:16;;;;;;;12.50;9.32;;;10.70;34.00;;;;;;7396066;19;20018;-67
2022/10/10 04:54:46;;;;;;;10.60;8.65;;;10.70;34.40;;;;;;7395588;19;20007;-67
2022/10/10 04:57:16;;;;;;;14.57;9.00;;;10.60;34.70;;;;;;7391955;19;20840;-66
2022/10/10 04:59:46;;;;;;;13.98;8.73;;;10.50;35.10;;;;;;7393041;19;20010;-66
2022/10/10 05:02:18;;;;;;;16.88;9.77;;;10.50;35.90;;;;;;7395262;19;20470;-67
2022/10/10 05:04:48;;;;;;;19.30;9.45;;;10.50;36.10;;;;;;7395543;19;20003;-66
2022/10/10 05:07:18;;;;;;;18.20;10.45;;;10.50;37.10;;;;;;7391961;19;20010;-67
2022/10/10 05:09:47;;;;;;;16.02;9.80;;;10.50;37.50;;;;;;7393593;19;20018;-65
2022/10/10 05:12:17;;;;;;;15.90;10.10;;;10.50;37.60;;;;;;7395020;19;20018;-67
2022/10/10 05:14:47;;;;;;;14.45;9.45;;;10.50;38.10;;;;;;7395681;19;20022;-66
2022/10/10 05:17:19;;;;;;;22.85;10.32;;;10.50;38.30;;;;;;7389871;19;20015;-67
2022/10/10 05:19:50;;;;;;;12.55;9.48;;;10.60;38.80;;;;;;7392353;19;20041;-67
2022/10/10 05:22:20;;;;;;;15.40;9.48;;;10.50;37.90;;;;;;7394318;19;20515;-67
2022/10/10 05:24:50;;;;;;;14.98;9.52;;;10.60;37.60;;;;;;7394423;19;20367;-67
2022/10/10 05:27:19;;;;;;;13.07;9.27;;;10.50;37.50;;;;;;7390273;19;20491;-66
2022/10/10 05:29:49;;;;;;;14.45;9.77;;;10.50;37.50;;;;;;7392246;19;20014;-66
2022/10/10 05:32:21;;;;;;;13.98;10.00;;;10.60;38.10;;;;;;7393184;19;20010;-66
2022/10/10 05:34:51;;;;;;;15.65;9.73;;;10.60;37.90;;;;;;7393337;19;20025;-68
2022/10/10 05:37:21;;;;;;;15.57;8.65;;;10.60;37.90;;;;;;7390261;19;20029;-67
2022/10/10 05:39:51;;;;;;;14.05;9.40;;;10.60;38.10;;;;;;7392587;19;20009;-67
2022/10/10 05:42:23;;;;;;;14.43;10.15;;;10.60;37.90;;;;;;7394137;19;20483;-67
2022/10/10 05:44:53;;;;;;;16.85;10.00;;;10.60;38.30;;;;;;7393512;19;20723;-67
2022/10/10 05:47:25;;;;;;;14.45;10.65;;;10.60;38.50;;;;;;7390274;19;20006;-66
2022/10/10 05:49:56;;;;;;;15.63;10.02;;;10.70;38.60;;;;;;7390554;19;20096;-67
2022/10/10 05:52:26;;;;;;;13.85;10.05;;;10.80;38.30;;;;;;7390338;19;20006;-65
2022/10/10 05:54:56;;;;;;;14.02;10.32;;;10.80;37.70;;;;;;7393970;19;20346;-67
2022/10/10 05:57:26;;;;;;;17.33;10.63;;;10.80;37.60;;;;;;7390351;19;20345;-66
2022/10/10 05:59:55;;;;;;;17.05;10.35;;;10.90;37.00;;;;;;7392714;19;20658;-67
2022/10/10 06:02:28;;;;;;;12.75;9.77;;;10.90;36.10;;;;;;7393184;19;20006;-66
2022/10/10 06:04:57;;;;;;;19.33;9.63;;;10.90;36.10;;;;;;7393636;19;20018;-67
2022/10/10 06:07:27;;;;;;;16.73;10.02;;;10.90;35.10;;;;;;7389956;19;20011;-67
2022/10/10 06:10:17;;;;;;;14.10;9.57;;;11.00;35.20;;;;;;7392250;19;20018;-67
2022/10/10 06:12:47;;;;;;;14.75;9.60;;;11.00;34.40;;;;;;7392721;19;20542;-66
2022/10/10 06:15:17;;;;;;;14.75;9.68;;;11.10;34.40;;;;;;7393331;19;20022;-66
2022/10/10 06:17:50;;;;;;;16.17;9.93;;;11.20;33.90;;;;;;7388484;19;20006;-67
2022/10/10 06:20:20;;;;;;;16.45;9.95;;;11.20;33.80;;;;;;7392393;19;20366;-67
2022/10/10 06:22:49;;;;;;;15.23;9.57;;;11.30;33.90;;;;;;7392881;19;20010;-66
2022/10/10 06:25:20;;;;;;;19.90;9.65;;;11.40;32.60;;;;;;7392588;19;20014;-67
2022/10/10 06:28:08;;;;;;;15.52;8.88;;;11.50;32.30;;;;;;7384950;19;20463;-67
2022/10/10 06:30:41;;;;;;;14.07;9.43;;;11.60;30.00;;;;;;7390711;19;20010;-66
2022/10/10 06:33:14;;;;;;;13.07;8.63;;;11.70;29.80;;;;;;7393163;19;20014;-67
2022/10/10 06:35:45;;;;;;;13.10;9.00;;;11.90;28.60;;;;;;7391551;19;20022;-67
2022/10/10 06:38:17;;;;;;;14.05;8.68;;;12.10;28.50;;;;;;7390367;19;20010;-66
2022/10/10 06:40:47;;;;;;;13.60;8.30;;;12.20;26.70;;;;;;7390556;19;20006;-67
2022/10/10 06:43:18;;;;;;;18.08;9.52;;;12.20;25.50;;;;;;7391839;19;20014;-67
2022/10/10 06:45:51;;;;;;;16.02;9.65;;;12.40;24.60;;;;;;7391027;19;20034;-67
2022/10/10 06:48:23;;;;;;;14.65;8.77;;;12.40;23.70;;;;;;7390026;19;20037;-67
2022/10/10 06:51:01;;;;;;;12.40;8.35;;;12.50;23.80;;;;;;7390672;19;20018;-66
2022/10/10 06:53:31;;;;;;;12.25;7.80;;;12.50;22.80;;;;;;7391836;19;20010;-67
2022/10/10 06:56:02;;;;;;;13.98;8.82;;;12.60;22.20;;;;;;7389731;19;20463;-67
2022/10/10 06:58:33;;;;;;;12.27;9.20;;;12.70;22.70;;;;;;7388949;19;20018;-67
2022/10/10 07:01:05;;;;;;;12.75;8.68;;;12.70;22.10;;;;;;7391629;19;20010;-66
2022/10/10 07:03:38;;;;;;;17.45;8.52;;;12.80;20.60;;;;;;7389928;19;20473;-67
2022/10/10 07:06:11;;;;;;;14.13;8.45;;;12.80;19.60;;;;;;7390809;19;20024;-68
2022/10/10 07:08:42;;;;;;;11.63;7.72;;;12.90;20.40;;;;;;7388852;19;20024;-68
2022/10/10 07:11:12;;;;;;;10.13;7.80;;;13.20;18.70;;;;;;7390453;19;20017;-66
2022/10/10 07:13:41;;;;;;;10.88;8.00;;;13.40;17.30;;;;;;7389871;19;20038;-66
2022/10/10 07:16:12;;;;;;;10.63;7.00;;;13.50;15.10;;;;;;7390597;19;20018;-66
2022/10/10 07:18:47;;;;;;;10.35;7.13;;;13.60;13.20;;;;;;7388221;19;20014;-67
2022/10/10 07:21:17;;;;;;;10.38;7.05;;;13.70;12.80;;;;;;7390399;19;20019;-67
2022/10/10 07:23:49;;;;;;;10.68;7.63;;;13.60;12.50;;;;;;7388976;19;20015;-67
2022/10/10 07:26:21;;;;;;;11.98;7.03;;;13.60;13.00;;;;;;7389612;19;20011;-67
2022/10/10 07:28:51;;;;;;;14.15;7.65;;;13.50;13.30;;;;;;7388327;19;20114;-68
2022/10/10 07:31:21;;;;;;;13.57;7.40;;;13.50;14.00;;;;;;7389784;19;20124;-66
2022/10/10 07:33:53;;;;;;;11.68;6.82;;;13.50;14.20;;;;;;7389399;19;20014;-68
2022/10/10 07:36:23;;;;;;;9.88;6.88;;;13.50;14.40;;;;;;7389932;19;20021;-67
2022/10/10 07:38:53;;;;;;;10.27;7.03;;;13.50;14.50;;;;;;7389186;19;20011;-66
2022/10/10 07:41:23;;;;;;;12.02;7.30;;;13.50;14.80;;;;;;7397513;19;20017;-67
2022/10/10 07:43:56;;;;;;;13.25;7.45;;;13.40;14.30;;;;;;7397057;19;20489;-67
2022/10/10 07:46:26;;;;;;;10.45;7.57;;;13.50;15.10;;;;;;7395616;19;20010;-67
2022/10/10 07:48:58;;;;;;;17.70;8.00;;;13.40;15.30;;;;;;7397292;19;20366;-66
2022/10/10 07:51:28;;;;;;;10.73;8.43;;;13.30;15.60;;;;;;7395435;19;20006;-67
2022/10/10 07:53:58;;;;;;;13.60;8.32;;;13.40;14.70;;;;;;7397647;19;20507;-67
2022/10/10 07:56:27;;;;;;;9.30;7.75;;;13.80;15.30;;;;;;7394160;19;20015;-66
2022/10/10 07:58:58;;;;;;;12.93;8.27;;;13.90;13.70;;;;;;7394397;19;20031;-66
2022/10/10 08:01:28;;;;;;;9.15;7.40;;;13.70;13.30;;;;;;7394166;19;20006;-67
2022/10/10 08:04:00;;;;;;;12.85;7.57;;;13.80;14.00;;;;;;7396739;19;20002;-68
2022/10/10 08:06:30;;;;;;;10.43;7.53;;;13.80;14.00;;;;;;7393195;19;20029;-66
2022/10/10 08:09:00;;;;;;;11.23;7.97;;;14.10;12.20;;;;;;7394279;19;20379;-67
2022/10/10 08:11:30;;;;;;;11.57;7.78;;;14.20;11.00;;;;;;7396030;19;20490;-67
2022/10/10 08:13:59;;;;;;;10.93;7.40;;;14.40;9.50;;;;;;7396289;19;20014;-66
2022/10/10 08:16:30;;;;;;;8.60;7.18;;;14.40;8.80;;;;;;7393803;19;20014;-66
2022/10/10 08:19:03;;;;;;;12.65;7.70;;;14.50;9.40;;;;;;7395463;19;20014;-67
2022/10/10 08:21:34;;;;;;;10.68;7.25;;;14.50;9.10;;;;;;7396077;19;20014;-67
2022/10/10 08:24:04;;;;;;;14.02;7.47;;;14.40;9.80;;;;;;7396300;19;20021;-67
2022/10/10 08:26:34;;;;;;;14.77;7.20;;;14.50;9.50;;;;;;7392435;19;20014;-67
2022/10/10 08:29:04;;;;;;;13.30;6.60;;;14.60;9.00;;;;;;7393842;19;20014;-67
2022/10/10 08:31:34;;;;;;;10.57;8.02;;;14.70;8.60;;;;;;7394852;19;20002;-67
2022/10/10 08:34:08;;;;;;;11.77;8.32;;;14.70;8.20;;;;;;7395728;19;20513;-67
2022/10/10 08:36:38;;;;;;;11.52;7.93;;;14.80;7.90;;;;;;7393038;19;20006;-68
2022/10/10 08:39:09;;;;;;;16.63;7.47;;;14.80;7.20;;;;;;7395550;19;20347;-68
2022/10/10 08:41:47;;;;;;;9.93;7.45;;;14.70;8.00;;;;;;7395765;19;20021;-67
2022/10/10 08:44:23;;;;;;;10.30;7.30;;;14.70;8.40;;;;;;7395905;19;20014;-67
2022/10/10 08:46:55;;;;;;;12.95;7.32;;;14.70;9.80;;;;;;7391320;19;20029;-67
2022/10/10 08:49:34;;;;;;;12.90;7.90;;;14.90;7.40;;;;;;7393330;19;20489;-68
2022/10/10 08:52:10;;;;;;;15.73;8.45;;;15.40;6.20;;;;;;7392143;19;20015;-67
2022/10/10 08:54:42;;;;;;;8.57;7.05;;;15.60;5.30;;;;;;7393904;19;20010;-67
2022/10/10 08:57:24;;;;;;;15.10;7.63;;;15.60;4.00;;;;;;7391969;19;20351;-67
2022/10/10 08:59:58;;;;;;;12.07;6.50;;;15.60;4.10;;;;;;7394316;19;20474;-68
2022/10/10 09:02:33;;;;;;;16.57;7.27;;;15.50;3.40;;;;;;7395390;19;20021;-68
2022/10/10 09:05:34;;;;;;;17.95;7.25;;;15.50;4.30;;;;;;7394808;19;20017;-67
2022/10/10 09:08:16;;;;;;;10.05;6.60;;;15.50;5.40;;;;;;7391116;19;20018;-67
2022/10/10 09:10:55;;;;;;;12.10;7.05;;;15.60;4.10;;;;;;7394151;19;20034;-68
2022/10/10 09:13:35;;;;;;;18.67;7.32;;;15.50;4.10;;;;;;7392487;19;20010;-68
2022/10/10 09:16:09;;;;;;;12.02;7.78;;;15.50;4.10;;;;;;7392219;19;20043;-67
2022/10/10 09:18:53;;;;;;;10.45;7.13;;;15.70;4.90;;;;;;7391415;19;20121;-68
2022/10/10 09:21:29;;;;;;;10.25;6.35;;;16.10;3.60;;;;;;7394118;19;20375;-66
2022/10/10 09:24:04;;;;;;;13.75;6.90;;;16.10;2.50;;;;;;7394593;19;20037;-67
2022/10/10 09:26:38;;;;;;;11.75;8.02;;;16.30;2.30;;;;;;7389945;19;20045;-67
2022/10/10 09:29:19;;;;;;;9.82;6.80;;;16.40;1.00;;;;;;7393165;19;20018;-67
2022/10/10 09:31:52;;;;;;;8.18;6.22;;;16.40;1.00;;;;;;7394099;19;20017;-67
2022/10/10 09:34:30;;;;;;;11.50;6.35;;;16.50;1.00;;;;;;7392621;19;20697;-67
2022/10/10 09:37:04;;;;;;;11.15;6.50;;;16.40;1.00;;;;;;7390620;19;20034;-66
2022/10/10 09:39:38;;;;;;;10.85;5.93;;;16.40;1.00;;;;;;7391975;19;20015;-68
2022/10/10 09:42:13;;;;;;;11.35;6.00;;;16.60;1.00;;;;;;7394516;19;20021;-68
2022/10/10 09:44:45;;;;;;;14.05;5.57;;;16.80;1.00;;;;;;7392606;19;20007;-68
2022/10/10 09:47:17;;;;;;;10.93;5.63;;;17.20;1.00;;;;;;7390517;19;20482;-67
2022/10/10 09:49:47;;;;;;;9.52;6.05;;;17.40;1.00;;;;;;7392170;19;20359;-68
2022/10/10 09:52:31;;;;;;;9.20;5.57;;;17.60;1.00;;;;;;7392375;19;20010;-68
2022/10/10 09:55:04;;;;;;;12.90;5.53;;;18.00;1.00;;;;;;7393260;19;20015;-68
2022/10/10 09:57:38;;;;;;;8.20;4.63;;;18.00;1.00;;;;;;7389379;19;20018;-66
2022/10/10 10:00:29;;;;;;;7.72;5.00;;;18.10;1.00;;;;;;7393057;19;20118;-67
2022/10/10 10:03:13;;;;;;;10.25;4.68;;;18.00;1.00;;;;;;7392777;19;20442;-67
2022/10/10 10:05:46;;;;;;;8.30;4.88;;;17.90;1.00;;;;;;7392421;19;20049;-68
2022/10/10 10:08:26;;;;;;;7.05;4.60;;;17.80;1.00;;;;;;7391610;19;20027;-68
2022/10/10 10:10:59;;;;;;;10.57;5.13;;;17.60;1.00;;;;;;7393255;19;20026;-66
2022/10/10 10:13:33;;;;;;;9.73;4.70;;;17.50;1.00;;;;;;7390669;19;20482;-68
2022/10/10 10:16:10;;;;;;;10.32;4.80;;;17.50;1.00;;;;;;7391236;19;20018;-67
2022/10/10 10:18:41;;;;;;;7.70;4.22;;;17.50;1.00;;;;;;7390334;19;20011;-67
2022/10/10 10:21:18;;;;;;;8.00;4.55;;;17.50;1.00;;;;;;7391815;19;20018;-66
2022/10/10 10:23:57;;;;;;;10.57;3.88;;;17.50;1.00;;;;;;7392751;19;20011;-67
2022/10/10 10:26:31;;;;;;;12.45;4.65;;;17.60;1.00;;;;;;7389289;19;20010;-66
2022/10/10 10:29:01;;;;;;;7.10;4.53;;;17.70;1.00;;;;;;7391836;19;20014;-67
2022/10/10 10:31:58;;;;;;;11.23;4.78;;;17.90;1.00;;;;;;7388887;19;20339;-68
2022/10/10 10:34:41;;;;;;;7.60;4.38;;;18.30;1.00;;;;;;7389108;19;20010;-68
2022/10/10 10:37:20;;;;;;;11.63;4.85;;;18.10;1.00;;;;;;7389838;19;20018;-68
2022/10/10 10:40:18;;;;;;;9.38;4.75;;;17.80;1.00;;;;;;7389465;19;20038;-66
2022/10/10 10:43:06;;;;;;;6.05;4.65;;;17.70;1.00;;;;;;7389690;19;20419;-68
2022/10/10 10:45:45;;;;;;;8.07;5.00;;;17.70;1.00;;;;;;7390986;19;20022;-68
2022/10/10 10:48:28;;;;;;;10.73;5.18;;;17.70;1.00;;;;;;7389854;19;20017;-66
2022/10/10 10:51:04;;;;;;;9.68;4.88;;;17.70;1.00;;;;;;7388748;19;20038;-67
2022/10/10 10:53:44;;;;;;;8.90;5.50;;;17.70;1.00;;;;;;7390987;19;20019;-67
2022/10/10 10:56:26;;;;;;;10.65;5.30;;;17.70;1.00;;;;;;7390726;19;20018;-68
2022/10/10 10:59:08;;;;;;;9.10;5.10;;;17.70;1.00;;;;;;7390242;19;20018;-67
2022/10/10 11:02:04;;;;;;;9.43;5.32;;;17.60;1.00;;;;;;7387927;19;20023;-67
2022/10/10 11:04:55;;;;;;;9.43;5.15;;;17.90;1.00;;;;;;7386473;19;20015;-67
2022/10/10 11:07:57;;;;;;;10.25;5.88;;;18.20;1.00;;;;;;7363231;19;20011;-68
2022/10/10 11:10:37;;;;;;;9.60;5.50;;;18.40;1.00;;;;;;7376522;19;20030;-68
2022/10/10 11:13:20;;;;;;;9.20;5.53;;;18.50;1.00;;;;;;7379631;19;20010;-67
2022/10/10 11:15:55;;;;;;;8.02;5.38;;;18.30;1.00;;;;;;7375830;19;20042;-67
2022/10/10 11:18:48;;;;;;;9.70;4.97;;;18.50;1.00;;;;;;7386084;19;20014;-67
2022/10/10 11:21:22;;;;;;;10.35;5.40;;;18.70;1.00;;;;;;7390116;19;20074;-68
2022/10/10 11:23:56;;;;;;;8.45;4.97;;;18.80;1.00;;;;;;7380802;19;20018;-68
2022/10/10 11:26:30;;;;;;;9.85;4.95;;;19.00;1.00;;;;;;7357725;19;20569;-68
2022/10/10 11:29:07;;;;;;;7.90;4.65;;;19.00;1.00;;;;;;7360027;19;20014;-68
2022/10/10 11:31:42;;;;;;;6.43;4.30;;;19.10;1.00;;;;;;7363307;19;20011;-66
2022/10/10 11:34:22;;;;;;;10.48;3.72;;;19.00;1.00;;;;;;7358543;19;20462;-68
2022/10/10 11:36:56;;;;;;;7.45;3.63;;;19.20;1.00;;;;;;7361038;19;20509;-68
2022/10/10 11:39:31;;;;;;;11.90;3.75;;;19.40;1.00;;;;;;7361448;19;20074;-67
2022/10/10 11:42:04;;;;;;;10.13;3.88;;;19.30;1.00;;;;;;7387656;19;20029;-68
2022/10/10 11:44:41;;;;;;;6.13;3.30;;;19.50;1.00;;;;;;7348104;19;20014;-67
2022/10/10 11:47:21;;;;;;;6.53;3.55;;;19.50;1.00;;;;;;7359223;19;20014;-67
2022/10/10 11:49:58;;;;;;;7.57;3.47;;;19.70;1.00;;;;;;7363388;19;20027;-68
2022/10/10 11:52:33;;;;;;;9.23;3.67;;;19.80;1.00;;;;;;7365364;19;20015;-68
2022/10/10 11:55:10;;;;;;;9.90;3.00;;;19.80;1.00;;;;;;7345455;19;20014;-68
2022/10/10 11:57:46;;;;;;;6.97;3.30;;;19.90;1.00;;;;;;7358073;19;20517;-67
2022/10/10 12:00:19;;;;;;;11.05;3.33;;;20.00;1.00;;;;;;7362200;19;20018;-68
2022/10/10 12:02:50;;;;;;;9.50;3.25;;;19.90;1.00;;;;;;7388460;19;20009;-67
2022/10/10 12:05:25;;;;;;;4.80;2.70;;;20.10;1.00;;;;;;7346939;19;20007;-67
2022/10/10 12:08:08;;;;;;;6.20;3.22;;;19.90;1.00;;;;;;7356892;19;20014;-68
2022/10/10 12:10:49;;;;;;;9.20;2.90;;;20.10;1.00;;;;;;7364899;19;20044;-67
2022/10/10 12:13:28;;;;;;;7.22;3.00;;;20.30;1.00;;;;;;7354611;19;20021;-68
2022/10/10 12:16:06;;;;;;;6.38;3.53;;;20.30;1.00;;;;;;7338421;19;20019;-67
2022/10/10 12:18:43;;;;;;;6.90;3.05;;;20.40;1.00;;;;;;7347794;19;20568;-67
2022/10/10 12:21:15;;;;;;;7.10;3.13;;;20.50;1.00;;;;;;7353549;19;20014;-68
2022/10/10 12:23:48;;;;;;;11.98;3.20;;;20.60;1.00;;;;;;7368304;19;21265;-68
2022/10/10 12:26:20;;;;;;;6.20;3.00;;;20.60;1.00;;;;;;7344328;19;20010;-68
2022/10/10 12:29:02;;;;;;;6.72;3.25;;;20.70;1.00;;;;;;7348014;19;20487;-68
2022/10/10 12:31:37;;;;;;;10.43;2.90;;;20.70;1.00;;;;;;7351434;19;20098;-67
2022/10/10 12:34:11;;;;;;;;;;;20.80;1.00;;;;;;7331280;19;20014;-68
2022/10/10 12:37:19;;;;;;;7.28;3.08;;;20.80;1.00;;;;;;7351550;19;19934;-68
2022/10/10 12:40:20;;;;;;;10.30;3.22;;;20.50;1.00;;;;;;7350040;19;20019;-68
2022/10/10 12:43:25;;;;;;;11.35;3.50;;;20.30;1.00;;;;;;7355799;19;20021;-68
2022/10/10 12:46:09;;;;;;;10.30;3.30;;;20.30;1.00;;;;;;7340749;19;20014;-68
2022/10/10 12:48:42;;;;;;;8.63;2.83;;;20.50;1.00;;;;;;7348444;19;20021;-69
2022/10/10 12:51:21;;;;;;;8.88;3.10;;;20.40;1.00;;;;;;7352246;19;20087;-68
2022/10/10 12:53:56;;;;;;;9.38;3.30;;;20.60;1.00;;;;;;7366496;19;20829;-69
2022/10/10 12:56:39;;;;;;;12.02;3.40;;;20.50;1.00;;;;;;7350486;19;20022;-69
2022/10/10 12:59:20;;;;;;;8.13;2.90;;;20.60;1.00;;;;;;7346782;19;20017;-68
2022/10/10 13:01:56;;;;;;;13.02;3.47;;;20.80;1.00;;;;;;7353739;19;20034;-68
2022/10/10 13:04:29;;;;;;;11.02;3.00;;;20.70;1.00;;;;;;7339488;19;20349;-68
2022/10/10 13:07:02;;;;;;;5.07;3.00;;;20.80;1.00;;;;;;7350112;19;20131;-68
2022/10/10 13:09:35;;;;;;;6.28;2.78;;;20.80;1.00;;;;;;7349169;19;20049;-68
2022/10/10 13:12:08;;;;;;;13.05;3.03;;;20.60;1.00;;;;;;7363755;19;20014;-69
2022/10/10 13:14:42;;;;;;;7.30;2.80;;;20.80;1.00;;;;;;7374948;19;20477;-67
2022/10/10 13:17:28;;;;;;;8.60;3.45;;;20.90;1.00;;;;;;7360279;19;20455;-68
2022/10/10 13:20:02;;;;;;;10.48;3.03;;;21.00;1.00;;;;;;7358773;19;20493;-68